Time;durP1;ratioP1;P1;durP2;ratioP2;P2;SDS_P1;SDS_P2;PMS_P1;PMS_P2;Temp;Humidity;BMP_temperature;BMP_pressure;BME280_temperature;BME280_humidity;BME280_pressure;Samples;Min_cycle;Max_cycle;Signal;HPM_P1;HPM_P2
2021/12/26 00:01:06;;;;;;;17.67;14.65;;;4.30;99.90;;;;;;5015183;28;20033;-78
2021/12/26 00:03:33;;;;;;;18.33;14.32;;;4.20;99.90;;;;;;5006861;28;20550;-79
2021/12/26 00:06:06;;;;;;;15.55;13.10;;;4.20;99.90;;;;;;5003681;28;20085;-78
2021/12/26 00:08:36;;;;;;;14.80;13.10;;;4.20;99.90;;;;;;5004944;28;20105;-78
2021/12/26 00:11:03;;;;;;;15.00;13.23;;;4.20;99.90;;;;;;5012882;28;20478;-77
2021/12/26 00:13:30;;;;;;;15.88;13.13;;;4.20;99.90;;;;;;5015352;28;20030;-78
2021/12/26 00:15:56;;;;;;;14.18;12.27;;;4.10;99.90;;;;;;5008598;28;20033;-75
2021/12/26 00:18:22;;;;;;;13.70;12.02;;;4.20;99.90;;;;;;5007547;28;20550;-78
2021/12/26 00:20:48;;;;;;;13.73;12.43;;;4.20;99.90;;;;;;5010293;28;20061;-76
2021/12/26 00:23:17;;;;;;;13.10;11.57;;;4.20;99.90;;;;;;5003018;28;20069;-77
2021/12/26 00:25:44;;;;;;;13.52;11.77;;;4.20;99.90;;;;;;5010311;28;20022;-77
2021/12/26 00:28:10;;;;;;;12.55;11.25;;;4.10;99.90;;;;;;5009710;28;20101;-75
2021/12/26 00:30:36;;;;;;;13.65;11.73;;;4.10;99.90;;;;;;5015690;28;20018;-75
2021/12/26 00:33:02;;;;;;;13.30;11.25;;;4.20;99.90;;;;;;5009459;28;20602;-75
2021/12/26 00:35:28;;;;;;;13.30;11.90;;;4.20;99.90;;;;;;5006392;28;20042;-75
2021/12/26 00:37:54;;;;;;;12.13;10.57;;;4.20;99.90;;;;;;5007662;28;20037;-76
2021/12/26 00:40:22;;;;;;;13.00;10.73;;;4.30;99.90;;;;;;5002216;28;20582;-76
2021/12/26 00:42:49;;;;;;;12.20;10.80;;;4.20;99.90;;;;;;5003655;28;20509;-74
2021/12/26 00:45:16;;;;;;;11.70;10.55;;;4.20;99.90;;;;;;5012341;28;20548;-76
2021/12/26 00:47:42;;;;;;;13.45;10.93;;;4.30;99.90;;;;;;5011370;28;20034;-75
2021/12/26 00:50:12;;;;;;;14.48;11.80;;;4.20;99.90;;;;;;5007145;28;20409;-75
2021/12/26 00:52:38;;;;;;;15.45;11.02;;;4.20;99.90;;;;;;4997299;28;20394;-74
2021/12/26 00:55:07;;;;;;;13.38;11.30;;;4.20;99.90;;;;;;4986964;28;20026;-76
2021/12/26 00:57:35;;;;;;;13.93;12.32;;;4.20;99.90;;;;;;4991205;28;20041;-75
2021/12/26 01:00:02;;;;;;;14.73;12.82;;;4.30;99.90;;;;;;5006522;28;20034;-75
2021/12/26 01:02:27;;;;;;;14.15;11.85;;;4.20;99.90;;;;;;5007708;28;20057;-77
2021/12/26 01:04:53;;;;;;;17.58;12.70;;;4.10;99.90;;;;;;5005154;28;20022;-76
2021/12/26 01:07:34;;;;;;;13.30;11.20;;;4.00;99.90;;;;;;5008947;28;20033;-73
2021/12/26 01:10:01;;;;;;;13.32;11.93;;;4.10;99.90;;;;;;5003228;28;20026;-75
2021/12/26 01:12:27;;;;;;;14.15;12.07;;;4.20;99.90;;;;;;4997972;28;20056;-74
2021/12/26 01:14:58;;;;;;;13.70;12.30;;;4.10;99.90;;;;;;4998793;28;20025;-76
2021/12/26 01:17:26;;;;;;;17.75;13.80;;;4.20;99.90;;;;;;5003148;28;20558;-75
2021/12/26 01:19:54;;;;;;;14.32;11.65;;;4.20;99.90;;;;;;5007288;28;20049;-75
2021/12/26 01:22:22;;;;;;;14.95;12.48;;;4.20;99.90;;;;;;5006996;28;20092;-75
2021/12/26 01:24:55;;;;;;;14.02;11.45;;;4.20;99.90;;;;;;5002668;28;20024;-76
2021/12/26 01:27:24;;;;;;;15.15;12.88;;;4.20;99.90;;;;;;5008759;28;20080;-74
2021/12/26 01:29:50;;;;;;;14.57;12.65;;;4.20;99.90;;;;;;5002194;28;20360;-74
2021/12/26 01:32:17;;;;;;;14.65;13.13;;;4.20;99.90;;;;;;5005098;28;20026;-77
2021/12/26 01:34:43;;;;;;;14.52;12.20;;;4.20;99.90;;;;;;5006295;28;20025;-75
2021/12/26 01:37:09;;;;;;;13.75;12.35;;;4.30;99.90;;;;;;5002846;28;20046;-76
2021/12/26 01:39:35;;;;;;;16.13;12.73;;;4.30;99.90;;;;;;5000191;28;20137;-76
2021/12/26 01:42:02;;;;;;;14.80;13.07;;;4.20;99.90;;;;;;4997075;28;20041;-76
2021/12/26 01:44:30;;;;;;;15.00;12.88;;;4.20;99.90;;;;;;4995291;28;20027;-74
2021/12/26 01:46:56;;;;;;;14.57;12.20;;;4.20;99.90;;;;;;5002862;28;20626;-73
2021/12/26 01:49:25;;;;;;;13.80;11.95;;;4.20;99.90;;;;;;5008657;28;20022;-73
2021/12/26 01:51:55;;;;;;;14.23;12.75;;;4.20;99.90;;;;;;5001144;28;20500;-74
2021/12/26 01:55:01;;;;;;;14.27;12.77;;;4.10;99.90;;;;;;5005942;28;20033;-74
2021/12/26 01:57:18;;;;;;;12.80;11.38;;;4.20;99.90;;;;;;5004706;28;20416;-75
2021/12/26 01:59:46;;;;;;;12.95;11.63;;;4.20;99.90;;;;;;5003208;28;20100;-74
2021/12/26 02:02:13;;;;;;;13.82;12.27;;;4.20;99.90;;;;;;5004131;28;20100;-74
2021/12/26 02:04:41;;;;;;;14.55;13.00;;;4.20;99.90;;;;;;5004852;28;20021;-74
2021/12/26 02:07:09;;;;;;;14.02;12.48;;;4.20;99.90;;;;;;5005195;28;20109;-74
2021/12/26 02:09:36;;;;;;;14.35;12.20;;;4.20;99.90;;;;;;5003475;28;20025;-74
2021/12/26 02:12:03;;;;;;;14.13;12.63;;;4.20;99.90;;;;;;5006943;28;20033;-74
2021/12/26 02:14:28;;;;;;;12.85;11.35;;;4.20;99.90;;;;;;4995872;28;20060;-75
2021/12/26 02:16:54;;;;;;;13.70;12.18;;;4.20;99.90;;;;;;4999871;28;20026;-75
2021/12/26 02:19:20;;;;;;;14.05;12.32;;;4.20;99.90;;;;;;5000121;28;20034;-75
2021/12/26 02:22:03;;;;;;;13.32;12.02;;;4.20;99.90;;;;;;5005736;28;20065;-76
2021/12/26 02:25:29;;;;;;;13.27;11.88;;;4.20;99.90;;;;;;5004696;28;20089;-73
2021/12/26 02:27:33;;;;;;;13.45;11.48;;;4.20;99.90;;;;;;5005039;28;20062;-75
2021/12/26 02:30:00;;;;;;;14.07;12.43;;;4.30;99.90;;;;;;5004705;28;20061;-75
2021/12/26 02:32:27;;;;;;;14.13;12.57;;;4.30;99.90;;;;;;5005043;28;20022;-74
2021/12/26 02:34:53;;;;;;;13.55;12.20;;;4.30;99.90;;;;;;4995818;28;20022;-75
2021/12/26 02:37:19;;;;;;;15.13;12.10;;;4.20;99.90;;;;;;4999897;28;20045;-76
2021/12/26 02:39:45;;;;;;;13.65;12.25;;;4.20;99.90;;;;;;5007363;28;20036;-74
2021/12/26 02:42:11;;;;;;;14.25;12.50;;;4.20;99.90;;;;;;5005071;28;20084;-74
2021/12/26 02:44:37;;;;;;;13.57;12.18;;;4.10;99.90;;;;;;5005506;28;20026;-75
2021/12/26 02:47:03;;;;;;;15.27;13.65;;;4.20;99.90;;;;;;5001062;28;20022;-74
2021/12/26 02:49:29;;;;;;;14.73;12.90;;;4.20;99.90;;;;;;4999780;28;20427;-76
2021/12/26 02:51:55;;;;;;;16.85;13.20;;;4.20;99.90;;;;;;5003721;28;20072;-75
2021/12/26 02:54:25;;;;;;;15.70;12.85;;;4.20;99.90;;;;;;5004462;28;20053;-75
2021/12/26 02:56:51;;;;;;;15.07;13.48;;;4.10;99.90;;;;;;5010587;28;20021;-75
2021/12/26 02:59:17;;;;;;;17.05;13.30;;;4.10;99.90;;;;;;5012957;28;20018;-73
2021/12/26 03:01:42;;;;;;;15.73;13.55;;;4.10;99.90;;;;;;5009836;28;20019;-74
2021/12/26 03:04:09;;;;;;;18.98;13.13;;;4.10;99.90;;;;;;5012001;28;20057;-73
2021/12/26 03:09:03;;;;;;;17.98;14.93;;;4.10;99.90;;;;;;5002247;28;20049;-73
2021/12/26 03:11:30;;;;;;;15.77;14.07;;;4.20;99.90;;;;;;5004698;28;20053;-75
2021/12/26 03:13:56;;;;;;;17.85;14.10;;;4.20;99.90;;;;;;5003831;28;20041;-74
2021/12/26 03:16:22;;;;;;;17.38;13.70;;;4.20;99.90;;;;;;5003184;28;20032;-75
2021/12/26 03:18:48;;;;;;;17.20;13.25;;;4.20;99.90;;;;;;4999538;28;20022;-76
2021/12/26 03:21:13;;;;;;;17.45;13.63;;;4.20;99.90;;;;;;5003351;28;20034;-75
2021/12/26 03:23:39;;;;;;;17.38;13.68;;;4.30;99.90;;;;;;4995495;28;20415;-78
2021/12/26 03:26:06;;;;;;;16.80;13.93;;;4.20;99.90;;;;;;4989162;28;20026;-75
2021/12/26 03:28:32;;;;;;;18.10;14.35;;;4.20;99.90;;;;;;5001685;28;20502;-74
2021/12/26 03:31:00;;;;;;;18.13;13.98;;;4.20;99.90;;;;;;4999038;28;20076;-74
2021/12/26 03:33:27;;;;;;;17.65;14.15;;;4.20;99.90;;;;;;4989603;28;20018;-76
2021/12/26 03:35:53;;;;;;;18.13;14.32;;;4.20;99.90;;;;;;4994617;28;20042;-74
2021/12/26 03:38:21;;;;;;;18.73;14.68;;;4.20;99.90;;;;;;4998189;28;20221;-75
2021/12/26 03:40:47;;;;;;;20.15;14.95;;;4.20;99.90;;;;;;5000520;28;20025;-76
2021/12/26 03:43:13;;;;;;;18.95;14.73;;;4.10;99.90;;;;;;5003376;28;20037;-74
2021/12/26 03:45:41;;;;;;;18.83;14.23;;;4.10;99.90;;;;;;4994746;28;20506;-75
2021/12/26 03:48:07;;;;;;;17.25;14.68;;;4.20;99.90;;;;;;4999260;28;20026;-75
2021/12/26 03:50:34;;;;;;;20.38;14.98;;;4.10;99.90;;;;;;5008209;28;20018;-74
2021/12/26 03:53:02;;;;;;;20.58;15.43;;;4.10;99.90;;;;;;5004360;28;20030;-75
2021/12/26 03:55:28;;;;;;;23.35;15.40;;;4.10;99.90;;;;;;4996978;28;20026;-74
2021/12/26 03:57:54;;;;;;;17.17;14.13;;;4.20;99.90;;;;;;4991401;28;20026;-76
2021/12/26 04:00:23;;;;;;;20.15;16.20;;;4.20;99.90;;;;;;4993353;28;20080;-78
2021/12/26 04:02:49;;;;;;;20.10;15.02;;;4.20;99.90;;;;;;4994348;28;20569;-75
2021/12/26 04:05:15;;;;;;;21.38;16.95;;;4.20;99.90;;;;;;4996329;28;20117;-75
2021/12/26 04:07:42;;;;;;;20.25;16.55;;;4.10;99.90;;;;;;4992181;28;20048;-76
2021/12/26 04:10:09;;;;;;;20.00;15.45;;;4.10;99.90;;;;;;5000424;28;20027;-74
2021/12/26 04:12:37;;;;;;;21.60;16.88;;;4.20;99.90;;;;;;5001608;28;20442;-75
2021/12/26 04:15:08;;;;;;;21.75;16.55;;;4.20;99.90;;;;;;4998354;28;20212;-74
2021/12/26 04:17:34;;;;;;;22.48;17.23;;;4.10;99.90;;;;;;4984324;28;20487;-75
2021/12/26 04:20:00;;;;;;;25.45;17.85;;;4.00;99.90;;;;;;4988335;28;20030;-76
2021/12/26 04:22:26;;;;;;;23.05;17.23;;;4.10;99.90;;;;;;5003598;28;20491;-75
2021/12/26 04:24:51;;;;;;;21.00;16.08;;;4.20;99.90;;;;;;5006817;28;20018;-75
2021/12/26 04:27:17;;;;;;;21.60;16.30;;;4.20;99.90;;;;;;5005636;28;20033;-75
2021/12/26 04:29:42;;;;;;;23.00;17.55;;;4.20;99.90;;;;;;5002575;28;20026;-76
2021/12/26 04:32:08;;;;;;;20.80;16.75;;;4.20;99.90;;;;;;4994764;28;20033;-75
2021/12/26 04:34:34;;;;;;;24.77;18.20;;;4.20;99.90;;;;;;4994678;28;20022;-75
2021/12/26 04:36:59;;;;;;;22.02;15.77;;;4.20;99.90;;;;;;4998943;28;20496;-75
2021/12/26 04:39:25;;;;;;;21.52;17.15;;;4.20;99.90;;;;;;4999750;28;20015;-75
2021/12/26 04:41:51;;;;;;;22.13;16.27;;;4.20;99.90;;;;;;5002283;28;20018;-76
2021/12/26 04:44:16;;;;;;;23.83;16.83;;;4.20;99.90;;;;;;5007217;28;20372;-75
2021/12/26 04:46:42;;;;;;;21.52;16.25;;;4.20;99.90;;;;;;5005814;28;20054;-75
2021/12/26 04:49:08;;;;;;;23.45;16.63;;;4.20;99.90;;;;;;5004341;28;20030;-74
2021/12/26 04:51:33;;;;;;;25.42;18.00;;;4.20;99.90;;;;;;5000155;28;20029;-75
2021/12/26 04:53:59;;;;;;;23.25;16.30;;;4.30;99.90;;;;;;4991697;28;20414;-75
2021/12/26 04:56:25;;;;;;;28.52;18.17;;;4.20;99.90;;;;;;4992081;28;20074;-75
2021/12/26 04:58:51;;;;;;;22.65;17.50;;;4.20;99.90;;;;;;4993528;28;20129;-75
2021/12/26 05:01:17;;;;;;;24.20;17.25;;;4.30;99.90;;;;;;4991913;28;20121;-75
2021/12/26 05:03:43;;;;;;;23.77;17.67;;;4.30;99.90;;;;;;4992791;28;20041;-74
2021/12/26 05:06:09;;;;;;;25.45;17.77;;;4.30;99.90;;;;;;4992285;28;20045;-75
2021/12/26 05:08:35;;;;;;;21.80;16.17;;;4.30;99.90;;;;;;4993890;28;20483;-75
2021/12/26 05:11:01;;;;;;;24.38;17.35;;;4.30;99.90;;;;;;4993181;28;20019;-73
2021/12/26 05:13:27;;;;;;;21.65;16.33;;;4.40;99.90;;;;;;4990592;28;20037;-75
2021/12/26 05:15:54;;;;;;;23.85;16.85;;;4.40;99.90;;;;;;4994334;28;20053;-74
2021/12/26 05:18:20;;;;;;;24.50;18.05;;;4.40;99.90;;;;;;4992973;28;20025;-74
2021/12/26 05:20:46;;;;;;;22.80;17.13;;;4.40;99.90;;;;;;4995121;28;20045;-75
2021/12/26 05:23:12;;;;;;;25.55;18.33;;;4.40;99.90;;;;;;4994968;28;20400;-75
2021/12/26 05:25:37;;;;;;;22.13;16.15;;;4.40;99.90;;;;;;5003410;28;20463;-75
2021/12/26 05:28:03;;;;;;;22.55;16.17;;;4.30;99.90;;;;;;4991682;28;20041;-76
2021/12/26 05:30:29;;;;;;;22.80;16.30;;;4.40;99.90;;;;;;4998838;28;20026;-75
2021/12/26 05:32:55;;;;;;;23.00;16.75;;;4.50;99.90;;;;;;4998410;28;20029;-75
2021/12/26 05:35:20;;;;;;;23.00;16.75;;;4.50;99.90;;;;;;5000655;28;20138;-76
2021/12/26 05:37:47;;;;;;;19.45;15.77;;;4.50;99.90;;;;;;4990394;28;20028;-75
2021/12/26 05:40:14;;;;;;;21.30;16.38;;;4.50;99.90;;;;;;5000180;28;20442;-77
2021/12/26 05:42:41;;;;;;;22.13;16.10;;;4.50;99.90;;;;;;4996132;28;20027;-74
2021/12/26 05:45:08;;;;;;;24.02;16.67;;;4.50;99.90;;;;;;4990117;28;20019;-75
2021/12/26 05:47:34;;;;;;;22.63;16.85;;;4.50;99.90;;;;;;4993288;28;20050;-83
2021/12/26 05:50:00;;;;;;;25.42;17.42;;;4.50;99.90;;;;;;4991657;28;20018;-76
2021/12/26 05:52:27;;;;;;;23.05;17.55;;;4.40;99.90;;;;;;4992553;28;20026;-77
2021/12/26 05:54:52;;;;;;;24.27;17.45;;;4.40;99.90;;;;;;4998220;28;20065;-76
2021/12/26 05:57:18;;;;;;;24.05;17.05;;;4.40;99.90;;;;;;4999064;28;20105;-76
2021/12/26 05:59:44;;;;;;;24.15;17.08;;;4.50;99.90;;;;;;4999459;28;20034;-75
2021/12/26 06:02:10;;;;;;;21.77;16.75;;;4.50;99.90;;;;;;5002729;28;20026;-75
2021/12/26 06:04:36;;;;;;;25.58;18.35;;;4.50;99.90;;;;;;5004749;28;20046;-76
2021/12/26 06:07:03;;;;;;;24.67;17.38;;;4.50;99.90;;;;;;4996982;28;20025;-76
2021/12/26 06:09:28;;;;;;;25.02;16.70;;;4.50;99.90;;;;;;4999974;28;20022;-76
2021/12/26 06:11:54;;;;;;;25.65;18.15;;;4.50;99.90;;;;;;4998813;28;20041;-75
2021/12/26 06:14:20;;;;;;;23.98;17.67;;;4.50;99.90;;;;;;4997681;28;20029;-76
2021/12/26 06:16:45;;;;;;;23.02;17.42;;;4.50;99.90;;;;;;5000867;28;20033;-77
2021/12/26 06:19:11;;;;;;;23.48;17.05;;;4.50;99.90;;;;;;4998758;28;20520;-76
2021/12/26 06:21:37;;;;;;;25.58;17.23;;;4.50;99.90;;;;;;5006329;28;20079;-76
2021/12/26 06:24:03;;;;;;;22.23;16.08;;;4.50;99.90;;;;;;4998447;28;20030;-75
2021/12/26 06:26:30;;;;;;;21.42;15.85;;;4.60;99.90;;;;;;4985277;28;20049;-75
2021/12/26 06:28:56;;;;;;;22.00;15.57;;;4.60;99.90;;;;;;4993622;28;20022;-75
2021/12/26 06:31:22;;;;;;;21.38;16.80;;;4.60;99.90;;;;;;5002334;28;20505;-75
2021/12/26 06:33:49;;;;;;;21.98;14.77;;;4.70;99.90;;;;;;5004537;28;20037;-74
2021/12/26 06:36:15;;;;;;;19.90;14.90;;;4.90;99.90;;;;;;4996624;28;20034;-75
2021/12/26 06:38:43;;;;;;;20.02;16.17;;;5.00;99.90;;;;;;5004476;28;20022;-74
2021/12/26 06:41:09;;;;;;;20.55;15.25;;;5.00;99.90;;;;;;4995959;28;20030;-75
2021/12/26 06:43:38;;;;;;;19.15;14.02;;;5.10;99.90;;;;;;5005509;28;20109;-75
2021/12/26 06:46:04;;;;;;;20.05;14.98;;;5.10;99.90;;;;;;5001290;28;20101;-74
2021/12/26 06:48:30;;;;;;;17.33;13.85;;;4.90;99.90;;;;;;4990242;28;20122;-77
2021/12/26 06:50:55;;;;;;;20.75;14.60;;;4.90;99.90;;;;;;5000785;28;20022;-76
2021/12/26 06:53:22;;;;;;;18.83;13.73;;;4.90;99.90;;;;;;5002671;28;20026;-76
2021/12/26 06:55:47;;;;;;;20.33;14.75;;;4.90;99.90;;;;;;4999207;28;20021;-76
2021/12/26 06:58:14;;;;;;;17.77;13.98;;;5.00;99.90;;;;;;5007790;28;20026;-77
2021/12/26 07:00:40;;;;;;;18.95;14.45;;;5.00;99.90;;;;;;4998567;28;20351;-75
2021/12/26 07:03:06;;;;;;;16.58;13.23;;;5.00;99.90;;;;;;4995911;28;20101;-76
2021/12/26 07:05:32;;;;;;;18.48;14.45;;;5.00;99.90;;;;;;5000700;28;20590;-75
2021/12/26 07:07:58;;;;;;;17.55;13.50;;;5.10;99.90;;;;;;5006257;28;20022;-76
2021/12/26 07:10:23;;;;;;;22.17;14.60;;;5.20;99.90;;;;;;4997638;28;20031;-75
2021/12/26 07:12:49;;;;;;;19.02;13.73;;;5.10;99.90;;;;;;5002445;28;20485;-76
2021/12/26 07:15:15;;;;;;;24.98;15.65;;;5.20;99.90;;;;;;5001507;28;20126;-78
2021/12/26 07:17:42;;;;;;;18.02;14.77;;;5.20;99.90;;;;;;5002377;28;20022;-77
2021/12/26 07:20:09;;;;;;;21.23;14.80;;;5.20;99.90;;;;;;4996595;28;20045;-77
2021/12/26 07:22:36;;;;;;;18.63;14.07;;;5.10;99.90;;;;;;4996684;28;20027;-74
2021/12/26 07:25:03;;;;;;;22.05;15.10;;;5.20;99.90;;;;;;5000633;28;20068;-76
2021/12/26 07:27:28;;;;;;;20.60;15.68;;;5.20;99.90;;;;;;4992099;28;20728;-76
2021/12/26 07:29:54;;;;;;;20.98;14.57;;;5.20;99.90;;;;;;4989769;28;20023;-77
2021/12/26 07:32:19;;;;;;;19.35;15.05;;;5.20;99.90;;;;;;4992409;28;20363;-76
2021/12/26 07:34:45;;;;;;;19.60;14.55;;;5.10;99.90;;;;;;5003033;28;20053;-76
2021/12/26 07:37:11;;;;;;;17.83;14.95;;;5.10;99.90;;;;;;4995392;28;20039;-75
2021/12/26 07:39:37;;;;;;;22.25;16.75;;;5.10;99.90;;;;;;4991437;28;20134;-74
2021/12/26 07:42:03;;;;;;;19.90;15.68;;;5.20;99.90;;;;;;4985765;28;20023;-76
2021/12/26 07:44:29;;;;;;;21.67;16.40;;;5.20;99.90;;;;;;5006149;28;20033;-76
2021/12/26 07:46:55;;;;;;;19.83;15.57;;;5.30;99.90;;;;;;4996843;28;20510;-76
2021/12/26 07:49:22;;;;;;;20.80;15.32;;;5.30;99.90;;;;;;4998493;28;20518;-76
2021/12/26 07:51:49;;;;;;;21.33;15.25;;;5.30;99.90;;;;;;4996660;28;20033;-74
2021/12/26 07:54:15;;;;;;;19.92;14.93;;;5.50;99.90;;;;;;4998892;28;20036;-76
2021/12/26 07:56:41;;;;;;;21.80;15.55;;;5.50;99.90;;;;;;4990048;28;20076;-75
2021/12/26 07:59:07;;;;;;;20.88;15.43;;;5.40;99.90;;;;;;4992989;28;20030;-75
2021/12/26 08:01:33;;;;;;;18.60;15.13;;;5.40;99.90;;;;;;4992923;28;20027;-76
2021/12/26 08:04:02;;;;;;;20.60;15.88;;;5.30;99.90;;;;;;4993293;28;21297;-75
2021/12/26 08:06:31;;;;;;;19.92;15.57;;;5.20;99.90;;;;;;4994802;28;20142;-77
2021/12/26 08:08:58;;;;;;;23.50;16.40;;;5.30;99.90;;;;;;4992199;28;20092;-76
2021/12/26 08:11:23;;;;;;;24.10;15.85;;;5.20;99.90;;;;;;4994938;28;20060;-75
2021/12/26 08:13:49;;;;;;;23.23;16.13;;;5.10;99.90;;;;;;4993743;28;20061;-76
2021/12/26 08:16:16;;;;;;;23.00;16.90;;;5.20;99.90;;;;;;4993984;28;20027;-74
2021/12/26 08:18:42;;;;;;;19.58;14.93;;;5.20;99.90;;;;;;4994289;28;20498;-74
2021/12/26 08:21:08;;;;;;;19.77;15.70;;;5.40;99.90;;;;;;4994997;28;20022;-75
2021/12/26 08:23:34;;;;;;;20.33;15.88;;;5.60;99.90;;;;;;4995542;28;20166;-75
2021/12/26 08:26:01;;;;;;;21.92;16.55;;;5.60;99.90;;;;;;4994734;28;20026;-76
2021/12/26 08:28:26;;;;;;;20.38;15.60;;;5.60;99.90;;;;;;5005972;28;20072;-76
2021/12/26 08:30:52;;;;;;;19.40;15.32;;;5.60;99.90;;;;;;4999292;28;20101;-77
2021/12/26 08:33:18;;;;;;;20.13;15.30;;;5.60;99.90;;;;;;5000438;28;20483;-77
2021/12/26 08:35:46;;;;;;;18.50;15.02;;;5.70;99.90;;;;;;5002330;28;20486;-75
2021/12/26 08:38:14;;;;;;;20.88;16.90;;;5.70;99.90;;;;;;5001150;28;20465;-77
2021/12/26 08:40:39;;;;;;;20.60;15.70;;;5.80;99.90;;;;;;5002671;28;20019;-76
2021/12/26 08:43:06;;;;;;;20.63;15.80;;;5.80;99.90;;;;;;5004849;28;20088;-76
2021/12/26 08:45:32;;;;;;;19.92;16.30;;;5.80;99.90;;;;;;5002745;28;20475;-75
2021/12/26 08:47:58;;;;;;;18.38;15.07;;;5.80;99.90;;;;;;5009678;28;20064;-78
2021/12/26 08:50:25;;;;;;;21.08;15.88;;;5.70;99.90;;;;;;4996759;28;20129;-75
2021/12/26 08:52:51;;;;;;;20.98;16.27;;;5.80;99.90;;;;;;5001356;28;20033;-76
2021/12/26 08:55:19;;;;;;;21.38;15.13;;;5.90;99.90;;;;;;5008017;28;20038;-75
2021/12/26 08:57:45;;;;;;;21.83;17.35;;;6.00;99.90;;;;;;5003869;28;20029;-76
2021/12/26 09:00:11;;;;;;;26.08;16.42;;;6.00;99.90;;;;;;5008726;28;20022;-76
2021/12/26 09:02:38;;;;;;;20.77;14.85;;;5.90;99.90;;;;;;5001954;28;20119;-76
2021/12/26 09:05:04;;;;;;;19.02;15.38;;;5.90;99.90;;;;;;5002801;28;20053;-76
2021/12/26 09:07:30;;;;;;;19.17;16.08;;;5.80;99.90;;;;;;4999855;28;20036;-77
2021/12/26 09:09:57;;;;;;;24.38;16.00;;;5.70;99.90;;;;;;4994873;28;20018;-76
2021/12/26 09:12:23;;;;;;;22.88;16.27;;;5.70;99.90;;;;;;5004621;28;20398;-76
2021/12/26 09:14:49;;;;;;;20.45;16.20;;;5.70;99.90;;;;;;5007335;28;20022;-76
2021/12/26 09:17:14;;;;;;;21.40;14.90;;;5.70;99.90;;;;;;4998050;28;20026;-75
2021/12/26 09:19:40;;;;;;;23.77;16.77;;;6.00;99.90;;;;;;5014399;28;20033;-75
2021/12/26 09:22:08;;;;;;;20.50;15.50;;;6.40;99.90;;;;;;5002227;28;20022;-76
2021/12/26 09:24:34;;;;;;;22.23;16.63;;;6.40;99.90;;;;;;5011739;28;20017;-76
2021/12/26 09:27:00;;;;;;;21.02;16.13;;;6.20;99.90;;;;;;5008553;28;20077;-77
2021/12/26 09:29:27;;;;;;;19.38;15.73;;;6.20;99.90;;;;;;5002490;28;20043;-74
2021/12/26 09:31:53;;;;;;;22.30;16.60;;;6.20;99.90;;;;;;5005067;28;20097;-76
2021/12/26 09:34:20;;;;;;;22.88;17.05;;;6.20;99.90;;;;;;4998150;28;20026;-75
2021/12/26 09:36:47;;;;;;;20.23;16.17;;;6.40;99.90;;;;;;4997165;28;20057;-75
2021/12/26 09:39:13;;;;;;;20.83;16.15;;;6.30;99.90;;;;;;5003423;28;20439;-76
2021/12/26 09:41:39;;;;;;;20.83;16.08;;;6.40;99.90;;;;;;4990755;28;20034;-77
2021/12/26 09:44:06;;;;;;;19.90;16.70;;;6.40;99.90;;;;;;4994623;28;20395;-77
2021/12/26 09:46:34;;;;;;;19.48;15.75;;;6.30;99.90;;;;;;5007399;28;20018;-77
2021/12/26 09:48:59;;;;;;;19.45;16.65;;;6.40;99.90;;;;;;4995239;28;20026;-76
2021/12/26 09:51:26;;;;;;;17.92;15.90;;;6.80;99.90;;;;;;5002380;28;20014;-77
2021/12/26 09:53:52;;;;;;;18.75;15.57;;;6.90;99.90;;;;;;5001525;28;20022;-75
2021/12/26 09:56:18;;;;;;;18.30;14.48;;;7.10;99.90;;;;;;5003114;28;20505;-77
2021/12/26 09:59:21;;;;;;;20.13;15.70;;;7.30;99.90;;;;;;4996191;28;20046;-76
2021/12/26 10:01:49;;;;;;;19.85;16.33;;;6.90;99.90;;;;;;4960691;28;20154;-76
2021/12/26 10:04:18;;;;;;;20.23;15.15;;;6.60;99.90;;;;;;4997512;28;20398;-76
2021/12/26 10:06:45;;;;;;;21.08;16.20;;;6.70;99.90;;;;;;5004533;28;20015;-76
2021/12/26 10:09:11;;;;;;;18.73;15.73;;;7.00;99.90;;;;;;4995413;28;20026;-77
2021/12/26 10:11:48;;;;;;;20.30;15.63;;;7.30;99.90;;;;;;4996548;28;20049;-76
2021/12/26 10:14:18;;;;;;;19.25;16.95;;;7.60;99.90;;;;;;5001725;28;20522;-76
2021/12/26 10:16:46;;;;;;;19.15;15.07;;;7.30;99.90;;;;;;5008494;28;20056;-75
2021/12/26 10:19:13;;;;;;;18.73;14.73;;;7.10;99.90;;;;;;4998612;28;20018;-76
2021/12/26 10:21:44;;;;;;;20.77;15.52;;;7.00;99.90;;;;;;5000300;28;20022;-76
2021/12/26 10:24:23;;;;;;;19.77;15.55;;;6.90;99.90;;;;;;5004470;28;20030;-76
2021/12/26 10:26:55;;;;;;;16.50;13.98;;;7.10;99.90;;;;;;5005391;28;20065;-76
2021/12/26 10:29:26;;;;;;;18.42;15.35;;;7.50;99.90;;;;;;5001573;28;20068;-75
2021/12/26 10:32:00;;;;;;;17.85;15.75;;;7.50;99.90;;;;;;4997625;28;20399;-78
2021/12/26 10:34:36;;;;;;;16.77;13.50;;;7.60;99.90;;;;;;4996416;28;20046;-77
2021/12/26 10:37:07;;;;;;;15.88;12.85;;;7.80;99.90;;;;;;5005062;28;20056;-75
2021/12/26 10:39:39;;;;;;;;;;;7.90;99.90;;;;;;5011672;28;20046;-76
2021/12/26 10:42:07;;;;;;;14.27;12.27;;;8.00;99.90;;;;;;5000102;28;19906;-76
2021/12/26 10:44:52;;;;;;;12.32;10.77;;;8.20;99.90;;;;;;5007620;28;20026;-77
2021/12/26 10:47:31;;;;;;;15.80;11.38;;;8.20;99.90;;;;;;5003467;28;20018;-78
2021/12/26 10:50:11;;;;;;;12.10;9.70;;;7.90;99.90;;;;;;4993551;28;20034;-75
2021/12/26 10:52:59;;;;;;;11.68;10.40;;;8.00;99.90;;;;;;5002775;28;20022;-78
2021/12/26 10:55:42;;;;;;;12.57;11.27;;;8.00;99.90;;;;;;5008651;28;20087;-77
2021/12/26 10:58:17;;;;;;;12.80;10.73;;;7.70;99.90;;;;;;5001113;28;20021;-78
2021/12/26 11:00:46;;;;;;;12.02;10.75;;;7.60;99.90;;;;;;5002906;28;20022;-77
2021/12/26 11:03:21;;;;;;;11.40;9.95;;;7.60;99.90;;;;;;5002781;28;20395;-79
2021/12/26 11:05:49;;;;;;;10.00;9.00;;;7.50;99.90;;;;;;5005193;28;20014;-78
2021/12/26 11:08:17;;;;;;;10.05;9.00;;;7.80;99.90;;;;;;4998288;28;20018;-79
2021/12/26 11:10:51;;;;;;;9.25;8.35;;;8.20;99.90;;;;;;4993298;28;20501;-77
2021/12/26 11:13:26;;;;;;;9.05;8.15;;;8.40;99.90;;;;;;5011427;28;20060;-78
2021/12/26 11:16:01;;;;;;;11.85;9.43;;;8.50;99.90;;;;;;5026691;28;20026;-79
2021/12/26 11:18:27;;;;;;;8.93;8.02;;;8.60;99.90;;;;;;4998460;28;20087;-77
2021/12/26 11:20:58;;;;;;;9.15;8.20;;;8.60;99.90;;;;;;5012514;28;20015;-78
2021/12/26 11:23:30;;;;;;;11.88;9.93;;;8.40;99.90;;;;;;5013167;28;20038;-77
2021/12/26 11:26:02;;;;;;;9.27;8.35;;;8.40;99.90;;;;;;5010364;28;20030;-80
2021/12/26 11:28:30;;;;;;;9.75;8.68;;;8.20;99.90;;;;;;5000503;28;20041;-80
2021/12/26 11:31:06;;;;;;;10.00;8.98;;;8.50;99.90;;;;;;5004364;28;20026;-82
2021/12/26 11:33:31;;;;;;;9.18;8.27;;;8.70;99.90;;;;;;5000540;28;20028;-83
2021/12/26 11:35:59;;;;;;;8.93;8.05;;;8.70;99.90;;;;;;5007314;28;20061;-80
2021/12/26 11:38:27;;;;;;;9.93;7.88;;;8.80;99.90;;;;;;4997956;28;20086;-81
2021/12/26 11:40:58;;;;;;;10.50;8.57;;;9.00;99.90;;;;;;5011290;28;20089;-79
2021/12/26 11:43:43;;;;;;;10.18;7.97;;;9.00;99.90;;;;;;5005831;28;20041;-79
2021/12/26 11:46:33;;;;;;;9.13;8.23;;;9.00;99.90;;;;;;5009307;28;20038;-79
2021/12/26 11:49:33;;;;;;;8.75;7.85;;;9.00;99.90;;;;;;4996880;28;20225;-79
2021/12/26 11:52:16;;;;;;;8.18;7.38;;;8.70;99.90;;;;;;4993192;28;20566;-78
2021/12/26 11:55:24;;;;;;;7.90;7.10;;;8.90;99.90;;;;;;5002446;28;20053;-78
2021/12/26 11:58:30;;;;;;;9.90;7.20;;;9.10;99.90;;;;;;5000005;28;20339;-79
2021/12/26 12:00:59;;;;;;;9.35;8.43;;;9.20;99.90;;;;;;4995266;28;20049;-79
2021/12/26 12:03:29;;;;;;;7.72;6.95;;;9.10;99.90;;;;;;4999240;28;20486;-80
2021/12/26 12:05:56;;;;;;;7.35;6.65;;;9.00;99.90;;;;;;5002443;28;20026;-79
2021/12/26 12:08:32;;;;;;;7.75;6.88;;;9.00;99.90;;;;;;5000989;28;20037;-75
2021/12/26 12:11:01;;;;;;;8.35;7.55;;;9.10;99.90;;;;;;4997982;28;20022;-79
2021/12/26 12:13:27;;;;;;;8.52;7.70;;;9.10;99.90;;;;;;4998343;28;20022;-79
2021/12/26 12:16:10;;;;;;;7.90;7.13;;;9.20;99.90;;;;;;5001073;28;20085;-79
2021/12/26 12:18:39;;;;;;;7.60;6.80;;;9.20;99.90;;;;;;4999974;28;20022;-80
2021/12/26 12:21:24;;;;;;;7.88;7.15;;;9.20;99.90;;;;;;5009272;28;20034;-78
2021/12/26 12:24:02;;;;;;;8.05;7.30;;;9.20;99.90;;;;;;5001903;28;20037;-76
2021/12/26 12:26:48;;;;;;;8.15;6.90;;;9.10;99.90;;;;;;5000348;28;20490;-78
2021/12/26 12:29:29;;;;;;;7.50;6.80;;;9.20;99.90;;;;;;5001400;28;20031;-78
2021/12/26 12:32:07;;;;;;;7.43;6.72;;;9.10;99.90;;;;;;5005444;28;20041;-85
2021/12/26 12:34:51;;;;;;;9.85;7.28;;;9.10;99.90;;;;;;5001273;28;20031;-84
2021/12/26 12:37:42;;;;;;;7.35;6.65;;;9.10;99.90;;;;;;5003187;28;20037;-83
2021/12/26 12:40:29;;;;;;;7.32;6.65;;;9.30;99.90;;;;;;5017425;28;20029;-84
2021/12/26 12:43:17;;;;;;;7.57;6.78;;;9.30;99.90;;;;;;5011354;28;20031;-83
2021/12/26 12:45:52;;;;;;;7.43;6.72;;;9.40;99.90;;;;;;4999566;28;20015;-80
2021/12/26 12:48:44;;;;;;;6.47;5.88;;;9.60;99.90;;;;;;5011594;28;20019;-83
2021/12/26 12:51:16;;;;;;;6.53;5.93;;;9.70;99.90;;;;;;5006303;28;20042;-80